createdAt,value
2023-05-14T00:01:56.951Z,77.96
2023-05-14T00:04:28.134Z,77.96
2023-05-14T00:06:59.913Z,77.94
2023-05-14T00:09:31.317Z,77.94
2023-05-14T00:12:02.334Z,77.98
2023-05-14T00:14:33.503Z,78.02
2023-05-14T00:17:04.607Z,77.98
2023-05-14T00:19:35.651Z,77.94
2023-05-14T00:22:07.165Z,77.96
2023-05-14T00:24:38.739Z,78.21
2023-05-14T00:27:10.041Z,78.17
2023-05-14T00:29:41.256Z,78.23
2023-05-14T00:32:12.548Z,78.29
2023-05-14T00:34:43.742Z,78.32
2023-05-14T00:37:13.084Z,78.31
2023-05-14T00:39:42.780Z,78.32
2023-05-14T00:42:13.939Z,78.60
2023-05-14T00:44:44.917Z,78.59
2023-05-14T00:47:14.692Z,78.66
2023-05-14T00:49:44.251Z,78.77
2023-05-14T00:52:16.530Z,78.94
2023-05-14T00:54:49.235Z,78.93
2023-05-14T00:57:21.706Z,78.96
2023-05-14T00:59:53.102Z,79.10
2023-05-14T01:02:24.531Z,79.10
2023-05-14T01:04:56.034Z,79.10
2023-05-14T01:07:31.968Z,79.09
2023-05-14T01:10:07.570Z,78.97
2023-05-14T01:12:47.313Z,78.96
2023-05-14T01:15:23.067Z,78.90
2023-05-14T01:17:59.771Z,78.91
2023-05-14T01:20:30.981Z,78.88
2023-05-14T01:23:02.112Z,78.92
2023-05-14T01:25:33.869Z,79.05
2023-05-14T01:28:13.041Z,79.05
2023-05-14T01:30:50.650Z,79.15
2023-05-14T01:33:23.146Z,79.25
2023-05-14T01:35:56.014Z,79.19
2023-05-14T01:38:30.780Z,79.18
2023-05-14T01:41:02.576Z,79.34
2023-05-14T01:43:34.570Z,79.37
2023-05-14T01:46:05.964Z,79.32
2023-05-14T01:48:35.281Z,79.33
2023-05-14T01:51:06.659Z,79.40
2023-05-14T01:53:37.671Z,79.49
2023-05-14T01:56:09.131Z,79.47
2023-05-14T01:58:40.194Z,79.53
2023-05-14T02:01:11.411Z,79.49
2023-05-14T02:03:42.562Z,79.58
2023-05-14T02:06:11.992Z,79.65
2023-05-14T02:08:42.799Z,79.59
2023-05-14T02:11:14.031Z,79.62
2023-05-14T02:13:45.046Z,79.49
2023-05-14T02:16:16.118Z,79.43
2023-05-14T02:18:47.170Z,79.42
2023-05-14T02:21:18.159Z,79.43
2023-05-14T02:23:50.238Z,79.50
2023-05-14T02:26:21.526Z,79.42
2023-05-14T02:28:52.554Z,79.50
2023-05-14T02:31:23.765Z,79.69
2023-05-14T02:33:55.892Z,79.66
2023-05-14T02:36:27.207Z,79.65
2023-05-14T02:38:59.831Z,79.76
2023-05-14T02:41:30.935Z,79.86
2023-05-14T02:44:02.006Z,79.94
2023-05-14T02:46:33.797Z,79.83
2023-05-14T02:49:05.331Z,79.91
2023-05-14T02:51:36.564Z,79.84
2023-05-14T02:54:08.144Z,79.70
2023-05-14T02:56:39.089Z,79.76
2023-05-14T02:59:08.445Z,79.82
2023-05-14T03:01:40.118Z,79.78
2023-05-14T03:04:11.544Z,79.76
2023-05-14T03:06:40.969Z,79.74
2023-05-14T03:09:12.002Z,79.90
2023-05-14T03:11:43.085Z,79.83
2023-05-14T03:14:14.185Z,79.92
2023-05-14T03:16:46.200Z,79.87
2023-05-14T03:19:17.402Z,80.01
2023-05-14T03:21:50.090Z,79.94
2023-05-14T03:24:21.057Z,79.99
2023-05-14T03:26:51.891Z,80.00
2023-05-14T03:29:21.478Z,79.94
2023-05-14T03:31:52.312Z,80.11
2023-05-14T03:34:23.347Z,80.06
2023-05-14T03:36:52.834Z,80.06
2023-05-14T03:39:23.820Z,79.96
2023-05-14T03:41:57.007Z,80.05
2023-05-14T03:44:28.080Z,80.07
2023-05-14T03:46:57.571Z,80.02
2023-05-14T03:49:28.709Z,80.13
2023-05-14T03:51:59.758Z,80.16
2023-05-14T03:54:29.223Z,80.34
2023-05-14T03:57:00.081Z,80.43
2023-05-14T03:59:29.579Z,80.45
2023-05-14T04:02:00.640Z,80.42
2023-05-14T04:04:31.829Z,80.40
2023-05-14T04:07:02.840Z,80.40
2023-05-14T04:09:34.527Z,80.43
2023-05-14T04:12:06.136Z,80.23
2023-05-14T04:14:37.308Z,80.31
2023-05-14T04:17:08.484Z,80.22
2023-05-14T04:19:40.619Z,80.12
2023-05-14T04:22:11.556Z,80.25
2023-05-14T04:24:42.655Z,80.32
2023-05-14T04:27:16.116Z,80.23
2023-05-14T04:29:47.342Z,80.49
2023-05-14T04:32:18.796Z,80.55
2023-05-14T04:34:50.046Z,80.57
2023-05-14T04:37:21.146Z,80.78
2023-05-14T04:39:52.237Z,80.86
2023-05-14T04:42:21.633Z,80.81
2023-05-14T04:44:52.625Z,80.72
2023-05-14T04:47:23.668Z,80.66
2023-05-14T04:49:53.107Z,80.54
2023-05-14T04:52:23.903Z,80.27
2023-05-14T04:54:53.487Z,80.34
2023-05-14T04:57:24.357Z,80.34
2023-05-14T04:59:55.416Z,80.39
2023-05-14T05:02:24.755Z,80.44
2023-05-14T05:04:55.794Z,80.50
2023-05-14T05:07:26.941Z,80.44
2023-05-14T05:09:56.295Z,80.39
2023-05-14T05:12:30.060Z,80.41
2023-05-14T05:15:01.008Z,80.41
2023-05-14T05:17:32.707Z,80.46
2023-05-14T05:20:05.709Z,80.49
2023-05-14T05:22:36.762Z,80.27
2023-05-14T05:25:09.211Z,80.29
2023-05-14T05:27:40.222Z,80.14
2023-05-14T05:30:10.589Z,80.26
2023-05-14T05:32:41.593Z,80.19
2023-05-14T05:35:13.130Z,80.12
2023-05-14T05:37:45.286Z,79.95
2023-05-14T05:40:17.369Z,79.81
2023-05-14T05:42:48.606Z,79.70
2023-05-14T05:45:19.949Z,79.05
2023-05-14T05:47:51.188Z,79.48
2023-05-14T05:50:22.920Z,79.29
2023-05-14T05:52:54.561Z,79.33
2023-05-14T05:55:26.132Z,79.00
2023-05-14T05:57:57.115Z,79.03
2023-05-14T06:00:28.133Z,78.71
2023-05-14T06:02:59.273Z,78.23
2023-05-14T06:05:30.818Z,78.03
2023-05-14T06:08:02.081Z,77.88
2023-05-14T06:10:34.330Z,77.40
2023-05-14T06:13:05.351Z,76.81
2023-05-14T06:15:36.512Z,76.26
2023-05-14T06:18:07.743Z,76.21
2023-05-14T06:20:38.668Z,75.77
2023-05-14T06:23:12.242Z,75.89
2023-05-14T06:25:43.435Z,75.35
2023-05-14T06:28:14.560Z,74.60
2023-05-14T06:30:45.903Z,74.63
2023-05-14T06:33:19.319Z,74.64
2023-05-14T06:35:51.609Z,73.59
2023-05-14T06:38:22.668Z,73.53
2023-05-14T06:40:54.347Z,72.85
2023-05-14T06:43:25.770Z,72.50
2023-05-14T06:45:56.865Z,72.41
2023-05-14T06:48:29.533Z,71.89
2023-05-14T06:51:00.720Z,71.86
2023-05-14T06:53:32.308Z,70.95
2023-05-14T06:56:03.245Z,70.55
2023-05-14T06:58:34.495Z,70.71
2023-05-14T07:01:06.670Z,69.92
2023-05-14T07:03:37.716Z,69.01
2023-05-14T07:06:10.309Z,68.94
2023-05-14T07:08:42.287Z,68.50
2023-05-14T07:11:13.550Z,67.70
2023-05-14T07:13:44.740Z,67.40
2023-05-14T07:16:15.819Z,66.94
2023-05-14T07:18:47.796Z,67.67
2023-05-14T07:21:19.016Z,67.18
2023-05-14T07:23:50.132Z,67.02
2023-05-14T07:26:21.533Z,65.92
2023-05-14T07:28:52.590Z,65.97
2023-05-14T07:31:23.698Z,65.84
2023-05-14T07:33:54.677Z,65.70
2023-05-14T07:36:26.596Z,65.41
2023-05-14T07:38:57.605Z,65.59
2023-05-14T07:41:29.029Z,64.41
2023-05-14T07:44:00.175Z,64.82
2023-05-14T07:46:31.872Z,64.41
2023-05-14T07:49:03.050Z,64.20
2023-05-14T07:51:34.296Z,62.97
2023-05-14T07:54:05.518Z,63.88
2023-05-14T07:56:36.877Z,63.46
2023-05-14T07:59:08.373Z,62.34
2023-05-14T08:01:39.687Z,62.31
2023-05-14T08:04:11.951Z,61.99
2023-05-14T08:06:43.146Z,61.58
2023-05-14T08:09:14.371Z,59.24
2023-05-14T08:11:45.359Z,59.19
2023-05-14T08:14:16.669Z,59.09
2023-05-14T08:16:49.180Z,59.09
2023-05-14T08:19:20.315Z,59.94
2023-05-14T08:21:51.507Z,58.45
2023-05-14T08:24:22.612Z,58.76
2023-05-14T08:26:53.827Z,59.23
2023-05-14T08:29:26.113Z,58.85
2023-05-14T08:31:57.620Z,58.25
2023-05-14T08:34:29.884Z,58.56
2023-05-14T08:37:00.835Z,58.64
2023-05-14T08:39:32.090Z,58.06
2023-05-14T08:42:03.528Z,57.48
2023-05-14T08:44:39.982Z,57.97
2023-05-14T08:47:12.769Z,57.03
2023-05-14T08:49:45.165Z,57.94
2023-05-14T08:52:17.352Z,56.72
2023-05-14T08:54:51.837Z,56.16
2023-05-14T08:57:25.016Z,56.56
2023-05-14T08:59:57.413Z,56.12
2023-05-14T09:02:31.452Z,55.36
2023-05-14T09:05:03.814Z,53.96
2023-05-14T09:07:36.085Z,54.79
2023-05-14T09:10:10.133Z,54.43
2023-05-14T09:12:41.059Z,55.24
2023-05-14T09:15:14.728Z,55.71
2023-05-14T09:17:48.168Z,53.97
2023-05-14T09:20:20.192Z,53.80
2023-05-14T09:22:55.502Z,54.01
2023-05-14T09:25:32.233Z,54.46
2023-05-14T09:28:06.906Z,54.73
2023-05-14T09:30:39.037Z,54.63
2023-05-14T09:33:10.562Z,53.92
2023-05-14T09:35:43.532Z,52.65
2023-05-14T09:38:14.718Z,52.74
2023-05-14T09:40:47.171Z,53.71
2023-05-14T09:43:18.496Z,53.16
2023-05-14T09:45:49.852Z,51.61
2023-05-14T09:48:22.483Z,51.45
2023-05-14T09:50:53.784Z,51.62
2023-05-14T09:53:25.149Z,53.39
2023-05-14T09:55:56.753Z,53.03
2023-05-14T09:58:29.405Z,52.17
2023-05-14T10:01:02.751Z,52.66
2023-05-14T10:03:34.171Z,51.62
2023-05-14T10:06:08.796Z,49.02
2023-05-14T10:08:42.898Z,49.92
2023-05-14T10:11:20.798Z,49.91
2023-05-14T10:14:00.973Z,50.09
2023-05-14T10:16:36.028Z,50.36
2023-05-14T10:19:11.411Z,50.01
2023-05-14T10:21:45.893Z,50.75
2023-05-14T10:24:17.599Z,50.26
2023-05-14T10:26:50.068Z,50.31
2023-05-14T10:29:21.186Z,50.57
2023-05-14T10:31:54.457Z,49.23
2023-05-14T10:34:41.292Z,49.16
2023-05-14T10:37:14.962Z,47.84
2023-05-14T10:39:47.766Z,47.89
2023-05-14T10:42:21.578Z,47.61
2023-05-14T10:44:56.831Z,48.12
2023-05-14T10:47:29.171Z,48.89
2023-05-14T10:50:02.287Z,49.35
2023-05-14T10:52:36.420Z,49.35
2023-05-14T10:55:10.204Z,49.24
2023-05-14T10:57:44.027Z,48.70
2023-05-14T11:00:17.140Z,47.60
2023-05-14T11:02:48.694Z,48.23
2023-05-14T11:05:19.908Z,48.37
2023-05-14T11:07:53.943Z,46.96
2023-05-14T11:10:26.080Z,47.06
2023-05-14T11:12:59.161Z,45.91
2023-05-14T11:15:30.282Z,46.96
2023-05-14T11:18:01.326Z,47.32
2023-05-14T11:20:33.928Z,47.39
2023-05-14T11:23:04.894Z,47.33
2023-05-14T11:25:36.271Z,47.33
2023-05-14T11:28:07.760Z,46.82
2023-05-14T11:30:39.164Z,46.82
2023-05-14T11:33:10.556Z,47.18
2023-05-14T11:35:45.445Z,47.03
2023-05-14T11:38:21.681Z,46.99
2023-05-14T11:40:56.204Z,46.91
2023-05-14T11:43:29.392Z,47.20
2023-05-14T11:46:00.852Z,47.72
2023-05-14T11:48:33.158Z,47.44
2023-05-14T11:51:05.911Z,47.44
2023-05-14T11:53:37.351Z,46.60
2023-05-14T11:56:09.949Z,46.47
2023-05-14T11:58:41.553Z,46.54
2023-05-14T12:01:16.075Z,47.02
2023-05-14T12:03:47.498Z,47.06
2023-05-14T12:06:19.352Z,46.24
2023-05-14T12:08:50.570Z,46.50
2023-05-14T12:11:23.888Z,46.88
2023-05-14T12:13:55.719Z,46.86
2023-05-14T12:16:31.117Z,47.00
2023-05-14T12:19:03.976Z,46.93
2023-05-14T12:21:36.669Z,46.68
2023-05-14T12:24:10.692Z,47.27
2023-05-14T12:26:45.335Z,47.90
2023-05-14T12:29:17.851Z,47.88
2023-05-14T12:31:50.589Z,48.27
2023-05-14T12:34:22.204Z,48.69
2023-05-14T12:36:53.323Z,49.07
2023-05-14T12:39:24.404Z,48.88
2023-05-14T12:41:55.308Z,49.01
2023-05-14T12:44:26.655Z,49.51
2023-05-14T12:46:57.800Z,49.97
2023-05-14T12:49:29.040Z,50.05
2023-05-14T12:52:19.458Z,49.93
2023-05-14T12:54:51.206Z,50.74
2023-05-14T12:57:22.393Z,51.14
2023-05-14T12:59:53.879Z,51.37
2023-05-14T13:02:25.146Z,52.15
2023-05-14T13:04:56.440Z,52.87
2023-05-14T13:07:27.557Z,52.95
2023-05-14T13:09:58.938Z,53.07
2023-05-14T13:12:30.135Z,53.31
2023-05-14T13:15:01.301Z,53.81
2023-05-14T13:17:33.519Z,54.81
2023-05-14T13:20:06.074Z,54.60
2023-05-14T13:22:36.986Z,54.73
2023-05-14T13:25:10.200Z,54.69
2023-05-14T13:27:41.249Z,54.92
2023-05-14T13:30:13.238Z,55.13
2023-05-14T13:32:44.057Z,55.08
2023-05-14T13:35:15.774Z,55.21
2023-05-14T13:37:48.349Z,56.28
2023-05-14T13:40:19.892Z,56.39
2023-05-14T13:42:51.197Z,56.52
2023-05-14T13:45:23.962Z,56.98
2023-05-14T13:47:56.748Z,57.09
2023-05-14T13:50:27.744Z,57.35
2023-05-14T13:52:58.996Z,57.85
2023-05-14T13:55:30.065Z,58.20
2023-05-14T13:58:02.396Z,58.49
2023-05-14T14:00:33.440Z,58.28
2023-05-14T14:03:04.726Z,58.41
2023-05-14T14:05:36.056Z,58.80
2023-05-14T14:08:21.996Z,59.42
2023-05-14T14:10:55.783Z,59.79
2023-05-14T14:13:27.894Z,59.74
2023-05-14T14:15:58.806Z,59.89
2023-05-14T14:18:30.228Z,60.10
2023-05-14T14:21:01.234Z,60.29
2023-05-14T14:23:33.372Z,59.92
2023-05-14T14:26:04.452Z,59.89
2023-05-14T14:28:35.555Z,60.55
2023-05-14T14:31:06.601Z,60.67
2023-05-14T14:33:37.876Z,61.40
2023-05-14T14:36:09.923Z,61.76
2023-05-14T14:38:41.187Z,62.27
2023-05-14T14:41:12.372Z,62.23
2023-05-14T14:43:43.885Z,62.74
2023-05-14T14:46:14.837Z,63.19
2023-05-14T14:48:45.934Z,63.33
2023-05-14T14:51:16.915Z,63.35
2023-05-14T14:53:48.016Z,63.63
2023-05-14T14:56:19.093Z,64.20
2023-05-14T14:58:50.367Z,63.57
2023-05-14T15:01:22.866Z,63.11
2023-05-14T15:03:53.950Z,62.68
2023-05-14T15:06:25.272Z,63.23
2023-05-14T15:08:56.407Z,64.38
2023-05-14T15:11:28.846Z,65.08
2023-05-14T15:13:59.760Z,65.56
2023-05-14T15:16:30.880Z,65.90
2023-05-14T15:19:02.189Z,66.74
2023-05-14T15:21:33.824Z,67.55
2023-05-14T15:24:06.238Z,68.78
2023-05-14T15:26:37.308Z,69.63
2023-05-14T15:29:08.666Z,70.82
2023-05-14T15:31:41.459Z,71.40
2023-05-14T15:34:12.679Z,71.66
2023-05-14T15:36:44.039Z,72.36
2023-05-14T15:39:15.301Z,72.88
2023-05-14T15:41:46.407Z,73.25
2023-05-14T15:44:17.682Z,73.82
2023-05-14T15:46:48.929Z,73.80
2023-05-14T15:49:20.121Z,74.18
2023-05-14T15:51:51.186Z,74.37
2023-05-14T15:54:22.501Z,74.45
2023-05-14T15:56:53.810Z,74.36
2023-05-14T15:59:25.069Z,74.19
2023-05-14T16:01:56.226Z,74.56
2023-05-14T16:04:27.625Z,74.27
2023-05-14T16:07:04.316Z,74.37
2023-05-14T16:09:36.187Z,74.45
2023-05-14T16:12:09.263Z,74.73
2023-05-14T16:14:42.036Z,75.12
2023-05-14T16:17:13.072Z,74.83
2023-05-14T16:19:44.096Z,74.95
2023-05-14T16:22:15.175Z,74.90
2023-05-14T16:24:46.548Z,74.43
2023-05-14T16:27:19.148Z,74.54
2023-05-14T16:29:50.035Z,74.95
2023-05-14T16:32:21.712Z,75.08
2023-05-14T16:34:52.819Z,75.34
2023-05-14T16:37:23.872Z,75.36
2023-05-14T16:39:55.000Z,75.47
2023-05-14T16:42:26.580Z,74.37
2023-05-14T16:44:57.705Z,74.30
2023-05-14T16:47:28.632Z,74.36
2023-05-14T16:49:59.847Z,74.28
2023-05-14T16:52:31.258Z,73.89
2023-05-14T16:55:02.299Z,73.99
2023-05-14T16:57:34.310Z,74.27
2023-05-14T17:00:06.578Z,74.39
2023-05-14T17:02:37.526Z,74.57
2023-05-14T17:05:10.552Z,74.86
2023-05-14T17:07:41.638Z,75.68
2023-05-14T17:10:14.480Z,76.20
2023-05-14T17:12:45.724Z,75.97
2023-05-14T17:15:16.757Z,76.15
2023-05-14T17:17:47.986Z,76.48
2023-05-14T17:20:19.108Z,76.75
2023-05-14T17:22:50.109Z,77.09
2023-05-14T17:25:23.856Z,77.28
2023-05-14T17:27:55.590Z,77.96
2023-05-14T17:30:27.262Z,78.18
2023-05-14T17:32:58.341Z,78.65
2023-05-14T17:35:29.854Z,78.74
2023-05-14T17:38:00.883Z,78.93
2023-05-14T17:40:36.310Z,79.07
2023-05-14T17:43:08.604Z,79.22
2023-05-14T17:45:53.096Z,79.28
2023-05-14T17:48:25.008Z,79.42
2023-05-14T17:50:56.270Z,79.64
2023-05-14T17:53:27.514Z,80.01
2023-05-14T17:55:58.827Z,80.06
2023-05-14T17:58:29.899Z,80.00
2023-05-14T18:01:00.825Z,80.17
2023-05-14T18:03:32.001Z,80.42
2023-05-14T18:06:03.337Z,80.51
2023-05-14T18:08:34.472Z,80.47
2023-05-14T18:11:05.512Z,80.49
2023-05-14T18:13:36.541Z,80.74
2023-05-14T18:16:08.765Z,80.99
2023-05-14T18:18:39.811Z,81.12
2023-05-14T18:21:10.826Z,81.31
2023-05-14T18:23:41.854Z,81.16
2023-05-14T18:26:12.947Z,80.96
2023-05-14T18:28:44.001Z,81.08
2023-05-14T18:31:15.352Z,81.15
2023-05-14T18:33:46.466Z,81.16
2023-05-14T18:36:18.717Z,81.34
2023-05-14T18:38:49.801Z,81.37
2023-05-14T18:41:21.495Z,81.28
2023-05-14T18:43:52.604Z,81.46
2023-05-14T18:46:23.787Z,81.50
2023-05-14T18:48:54.868Z,81.52
2023-05-14T18:51:26.101Z,81.67
2023-05-14T18:53:57.259Z,81.58
2023-05-14T18:56:28.666Z,81.69
2023-05-14T18:58:59.844Z,81.66
2023-05-14T19:01:31.489Z,81.87
2023-05-14T19:04:05.213Z,81.89
2023-05-14T19:06:36.614Z,82.17
2023-05-14T19:09:07.699Z,81.97
2023-05-14T19:11:39.016Z,82.07
2023-05-14T19:14:11.425Z,82.33
2023-05-14T19:16:42.771Z,82.52
2023-05-14T19:19:14.542Z,82.65
2023-05-14T19:21:45.781Z,82.65
2023-05-14T19:24:17.281Z,82.78
2023-05-14T19:26:49.359Z,82.90
2023-05-14T19:29:20.608Z,83.07
2023-05-14T19:31:51.876Z,83.31
2023-05-14T19:34:22.920Z,83.47
2023-05-14T19:36:54.566Z,83.56
2023-05-14T19:39:25.800Z,83.75
2023-05-14T19:41:56.886Z,83.77
2023-05-14T19:44:27.885Z,83.76
2023-05-14T19:46:59.703Z,83.71
2023-05-14T19:49:30.832Z,83.96
2023-05-14T19:52:00.142Z,84.09
2023-05-14T19:54:34.767Z,84.26
2023-05-14T19:57:06.546Z,84.34
2023-05-14T19:59:38.452Z,84.42
2023-05-14T20:02:12.453Z,84.55
2023-05-14T20:04:44.544Z,84.68
2023-05-14T20:07:16.482Z,84.73
2023-05-14T20:09:47.847Z,84.73
2023-05-14T20:12:18.875Z,84.74
2023-05-14T20:14:50.869Z,84.84
2023-05-14T20:17:21.906Z,84.88
2023-05-14T20:19:53.699Z,84.86
2023-05-14T20:22:24.682Z,84.93
2023-05-14T20:24:55.893Z,84.87
2023-05-14T20:27:26.909Z,84.83
2023-05-14T20:29:58.514Z,84.85
2023-05-14T20:32:29.659Z,84.74
2023-05-14T20:35:02.233Z,84.74
2023-05-14T20:37:34.188Z,84.68
2023-05-14T20:40:06.237Z,84.65
2023-05-14T20:42:37.536Z,84.59
2023-05-14T20:45:10.343Z,84.55
2023-05-14T20:47:41.388Z,84.58
2023-05-14T20:50:13.928Z,84.57
2023-05-14T20:52:45.392Z,84.74
2023-05-14T20:55:16.444Z,84.78
2023-05-14T20:57:49.668Z,84.74
2023-05-14T21:00:23.528Z,84.68
2023-05-14T21:02:54.737Z,84.62
2023-05-14T21:05:26.250Z,84.74
2023-05-14T21:07:57.574Z,84.69
2023-05-14T21:10:28.676Z,84.67
2023-05-14T21:12:57.907Z,84.59
2023-05-14T21:15:30.636Z,84.71
2023-05-14T21:18:02.973Z,84.68
2023-05-14T21:20:33.937Z,84.64
2023-05-14T21:23:04.879Z,84.65
2023-05-14T21:25:36.817Z,84.67
2023-05-14T21:28:07.793Z,84.61
2023-05-14T21:30:38.841Z,84.67
2023-05-14T21:33:10.057Z,84.57
2023-05-14T21:35:41.358Z,84.68
2023-05-14T21:38:12.930Z,84.69
2023-05-14T21:40:43.954Z,84.69
2023-05-14T21:43:14.937Z,84.73
2023-05-14T21:45:48.345Z,84.62
2023-05-14T21:48:19.611Z,84.69
2023-05-14T21:50:50.590Z,84.80
2023-05-14T21:53:21.660Z,84.78
2023-05-14T21:55:52.880Z,84.72
2023-05-14T21:58:22.493Z,84.80
2023-05-14T22:00:51.833Z,84.76
2023-05-14T22:03:22.914Z,84.81
2023-05-14T22:05:54.377Z,84.88
2023-05-14T22:08:25.402Z,84.92
2023-05-14T22:10:58.204Z,84.95
2023-05-14T22:13:29.627Z,85.15
2023-05-14T22:16:09.227Z,85.06
2023-05-14T22:18:43.776Z,84.98
2023-05-14T22:21:14.836Z,84.96
2023-05-14T22:23:44.451Z,84.94
2023-05-14T22:26:16.040Z,85.17
2023-05-14T22:28:48.703Z,85.35
2023-05-14T22:31:19.807Z,85.32
2023-05-14T22:33:51.202Z,85.39
2023-05-14T22:36:22.186Z,85.50
2023-05-14T22:38:53.180Z,85.48
2023-05-14T22:41:24.138Z,85.38
2023-05-14T22:43:53.494Z,85.40
2023-05-14T22:46:24.570Z,85.44
2023-05-14T22:48:55.635Z,85.41
2023-05-14T22:51:26.739Z,85.33
2023-05-14T22:53:57.926Z,85.40
2023-05-14T22:56:28.940Z,85.42
2023-05-14T22:59:00.364Z,85.41
2023-05-14T23:01:32.281Z,85.42
2023-05-14T23:04:03.718Z,85.46
2023-05-14T23:06:34.685Z,85.60
2023-05-14T23:09:05.860Z,85.68
2023-05-14T23:11:35.175Z,85.82
2023-05-14T23:14:06.125Z,85.85
2023-05-14T23:16:35.537Z,85.75
2023-05-14T23:19:05.400Z,85.74
2023-05-14T23:21:36.638Z,85.87
2023-05-14T23:24:08.398Z,86.05
2023-05-14T23:26:39.574Z,86.07
2023-05-14T23:29:10.834Z,86.11
2023-05-14T23:31:43.642Z,86.04
2023-05-14T23:34:14.756Z,86.07
2023-05-14T23:36:45.872Z,86.00
2023-05-14T23:39:17.373Z,85.97
2023-05-14T23:41:48.789Z,86.08
2023-05-14T23:44:19.806Z,86.04
2023-05-14T23:46:50.934Z,86.07
2023-05-14T23:49:21.945Z,86.02
2023-05-14T23:51:53.002Z,85.90
2023-05-14T23:54:24.054Z,85.98
2023-05-14T23:56:55.153Z,85.98
2023-05-14T23:59:26.572Z,86.07
